createdAt,value
2022-11-16T00:02:18.143Z,88.60
2022-11-16T00:05:25.525Z,89.04
2022-11-16T00:08:33.977Z,89.12
2022-11-16T00:11:38.359Z,88.95
2022-11-16T00:14:40.919Z,88.94
2022-11-16T00:17:43.246Z,88.74
2022-11-16T00:20:45.707Z,88.99
2022-11-16T00:23:48.139Z,89.79
2022-11-16T00:26:53.031Z,89.60
2022-11-16T00:29:55.827Z,89.73
2022-11-16T00:33:02.742Z,89.78
2022-11-16T00:36:07.119Z,90.04
2022-11-16T00:39:13.598Z,90.22
2022-11-16T00:42:15.954Z,90.40
2022-11-16T00:45:18.620Z,89.97
2022-11-16T00:48:22.005Z,90.09
2022-11-16T00:51:24.772Z,90.05
2022-11-16T00:54:27.435Z,90.18
2022-11-16T00:57:29.952Z,90.43
2022-11-16T01:00:32.913Z,91.21
2022-11-16T01:03:36.667Z,90.78
2022-11-16T01:06:39.228Z,90.97
2022-11-16T01:09:41.663Z,90.94
2022-11-16T01:12:46.782Z,91.31
2022-11-16T01:15:50.041Z,90.84
2022-11-16T01:18:54.600Z,91.09
2022-11-16T01:21:57.083Z,91.05
2022-11-16T01:24:59.457Z,91.83
2022-11-16T01:28:02.001Z,92.16
2022-11-16T01:31:16.533Z,92.62
2022-11-16T01:34:19.082Z,92.43
2022-11-16T01:37:21.647Z,91.98
2022-11-16T01:40:27.149Z,92.76
2022-11-16T01:43:29.705Z,92.78
2022-11-16T01:46:37.693Z,93.09
2022-11-16T01:49:48.939Z,92.85
2022-11-16T01:52:59.855Z,92.73
2022-11-16T01:56:08.595Z,92.29
2022-11-16T01:59:30.476Z,91.34
2022-11-16T02:02:33.894Z,91.48
2022-11-16T02:06:08.180Z,91.95
2022-11-16T02:09:54.098Z,92.33
2022-11-16T02:13:30.328Z,93.26
2022-11-16T02:16:51.789Z,93.20
2022-11-16T02:20:17.201Z,93.23
2022-11-16T02:23:57.098Z,93.60
2022-11-16T02:27:34.305Z,93.89
2022-11-16T02:30:42.514Z,93.47
2022-11-16T02:33:48.939Z,94.00
2022-11-16T02:36:55.237Z,94.10
2022-11-16T02:40:01.450Z,93.92
2022-11-16T02:43:10.898Z,93.95
2022-11-16T02:46:21.649Z,93.63
2022-11-16T02:49:27.787Z,93.25
2022-11-16T02:52:30.463Z,92.85
2022-11-16T02:55:34.660Z,92.94
2022-11-16T02:58:37.231Z,93.31
2022-11-16T03:01:47.877Z,93.26
2022-11-16T03:04:59.834Z,92.90
2022-11-16T03:08:18.002Z,92.05
2022-11-16T03:11:39.560Z,92.69
2022-11-16T03:14:54.801Z,92.58
2022-11-16T03:18:00.229Z,93.22
2022-11-16T03:21:14.200Z,92.65
2022-11-16T03:24:19.394Z,92.56
2022-11-16T03:27:25.911Z,92.38
2022-11-16T03:30:33.299Z,92.08
2022-11-16T03:33:41.090Z,92.47
2022-11-16T03:36:46.740Z,92.05
2022-11-16T03:39:52.521Z,92.02
2022-11-16T03:42:56.293Z,92.11
2022-11-16T03:45:59.954Z,92.04
2022-11-16T03:49:02.615Z,92.32
2022-11-16T03:52:11.000Z,92.91
2022-11-16T03:55:13.400Z,92.83
2022-11-16T03:58:18.747Z,93.15
2022-11-16T04:01:21.940Z,93.68
2022-11-16T04:04:44.053Z,93.10
2022-11-16T04:08:06.773Z,93.48
2022-11-16T04:11:33.799Z,92.60
2022-11-16T04:14:54.853Z,92.72
2022-11-16T04:18:17.706Z,93.02
2022-11-16T04:21:54.276Z,91.79
2022-11-16T04:25:07.760Z,92.37
2022-11-16T04:28:13.770Z,92.94
2022-11-16T04:31:39.102Z,92.93
2022-11-16T04:35:03.760Z,93.00
2022-11-16T04:38:06.286Z,92.92
2022-11-16T04:41:31.207Z,92.37
2022-11-16T04:44:55.748Z,93.00
2022-11-16T04:48:01.532Z,93.48
2022-11-16T04:51:06.955Z,93.22
2022-11-16T04:54:10.421Z,93.58
2022-11-16T04:57:13.518Z,93.40
2022-11-16T05:00:16.750Z,93.20
2022-11-16T05:03:19.772Z,93.06
2022-11-16T05:06:22.148Z,92.62
2022-11-16T05:09:25.305Z,92.84
2022-11-16T05:12:28.425Z,92.71
2022-11-16T05:15:34.221Z,92.58
2022-11-16T05:18:36.887Z,92.36
2022-11-16T05:21:40.496Z,92.41
2022-11-16T05:24:44.306Z,92.02
2022-11-16T05:27:47.085Z,92.26
2022-11-16T05:30:49.453Z,91.88
2022-11-16T05:33:56.406Z,91.98
2022-11-16T05:36:59.910Z,91.82
2022-11-16T05:40:02.670Z,91.74
2022-11-16T05:43:15.574Z,91.53
2022-11-16T05:46:27.016Z,91.73
2022-11-16T05:49:32.328Z,91.66
2022-11-16T05:52:34.998Z,91.99
2022-11-16T05:55:41.618Z,91.79
2022-11-16T05:58:45.718Z,91.25
2022-11-16T06:01:48.610Z,91.44
2022-11-16T06:04:52.112Z,91.77
2022-11-16T06:07:56.625Z,92.75
2022-11-16T06:11:04.972Z,92.23
2022-11-16T06:14:08.655Z,92.48
2022-11-16T06:17:14.595Z,92.36
2022-11-16T06:20:18.212Z,92.62
2022-11-16T06:23:21.618Z,92.16
2022-11-16T06:26:24.752Z,92.54
2022-11-16T06:29:27.461Z,92.26
2022-11-16T06:32:30.155Z,91.85
2022-11-16T06:35:33.365Z,91.80
2022-11-16T06:38:36.737Z,91.74
2022-11-16T06:41:41.490Z,91.71
2022-11-16T06:44:46.691Z,91.60
2022-11-16T06:47:52.105Z,91.55
2022-11-16T06:50:54.920Z,91.90
2022-11-16T06:53:58.514Z,91.76
2022-11-16T06:57:02.937Z,91.50
2022-11-16T07:00:06.486Z,90.88
2022-11-16T07:03:11.068Z,90.68
2022-11-16T07:06:14.700Z,90.79
2022-11-16T07:09:20.586Z,90.57
2022-11-16T07:12:23.545Z,91.29
2022-11-16T07:15:26.168Z,90.30
2022-11-16T07:18:29.205Z,91.98
2022-11-16T07:21:32.099Z,92.70
2022-11-16T07:24:37.632Z,93.10
2022-11-16T07:27:40.739Z,92.97
2022-11-16T07:30:44.706Z,92.64
2022-11-16T07:33:52.270Z,93.27
2022-11-16T07:37:13.485Z,93.19
2022-11-16T07:40:16.522Z,93.02
2022-11-16T07:43:20.425Z,91.95
2022-11-16T07:46:47.637Z,91.63
2022-11-16T07:49:52.473Z,92.07
2022-11-16T07:52:57.190Z,92.22
2022-11-16T07:56:00.255Z,91.88
2022-11-16T07:59:06.125Z,91.50
2022-11-16T08:02:12.527Z,90.85
2022-11-16T08:05:16.851Z,90.76
2022-11-16T08:08:19.511Z,90.57
2022-11-16T08:11:22.083Z,89.28
2022-11-16T08:14:26.322Z,89.11
2022-11-16T08:17:31.750Z,88.67
2022-11-16T08:20:36.608Z,88.48
2022-11-16T08:23:40.444Z,89.14
2022-11-16T08:26:43.512Z,89.75
2022-11-16T08:29:48.913Z,89.43
2022-11-16T08:32:51.585Z,89.50
2022-11-16T08:35:55.066Z,88.81
2022-11-16T08:38:58.110Z,89.16
2022-11-16T08:42:00.976Z,89.70
2022-11-16T08:45:03.907Z,88.78
2022-11-16T08:48:06.667Z,88.52
2022-11-16T08:51:19.247Z,88.55
2022-11-16T08:54:29.294Z,89.13
2022-11-16T08:57:32.254Z,88.68
2022-11-16T09:00:39.353Z,88.79
2022-11-16T09:03:42.492Z,89.49
2022-11-16T09:06:45.667Z,89.37
2022-11-16T09:09:49.102Z,89.59
2022-11-16T09:12:52.532Z,88.46
2022-11-16T09:15:59.390Z,88.06
2022-11-16T09:19:03.161Z,88.01
2022-11-16T09:22:06.362Z,87.97
2022-11-16T09:25:14.780Z,88.00
2022-11-16T09:28:22.380Z,87.47
2022-11-16T09:31:27.709Z,87.28
2022-11-16T09:34:30.234Z,87.31
2022-11-16T09:37:34.226Z,87.24
2022-11-16T09:40:39.747Z,86.72
2022-11-16T09:43:53.678Z,86.69
2022-11-16T09:46:59.102Z,87.56
2022-11-16T09:50:05.554Z,87.05
2022-11-16T09:53:40.232Z,86.88
2022-11-16T09:56:44.000Z,86.33
2022-11-16T09:59:51.781Z,86.37
2022-11-16T10:03:21.298Z,87.49
2022-11-16T10:06:41.891Z,87.70
2022-11-16T10:09:46.685Z,86.94
2022-11-16T10:12:54.601Z,87.20
2022-11-16T10:16:02.437Z,88.09
2022-11-16T10:19:22.745Z,86.98
2022-11-16T10:22:25.392Z,87.06
2022-11-16T10:25:46.432Z,86.57
2022-11-16T10:29:01.038Z,87.05
2022-11-16T10:32:18.736Z,86.28
2022-11-16T10:35:39.710Z,86.14
2022-11-16T10:38:44.651Z,86.50
2022-11-16T10:41:54.157Z,86.83
2022-11-16T10:45:06.885Z,86.15
2022-11-16T10:48:50.605Z,84.41
2022-11-16T10:51:53.553Z,84.59
2022-11-16T10:54:56.171Z,85.51
2022-11-16T10:58:02.077Z,86.41
2022-11-16T11:01:10.970Z,87.59
2022-11-16T11:04:22.204Z,87.16
2022-11-16T11:07:40.329Z,85.94
2022-11-16T11:10:43.076Z,86.92
2022-11-16T11:13:45.545Z,86.09
2022-11-16T11:16:55.838Z,87.39
2022-11-16T11:20:18.602Z,86.46
2022-11-16T11:23:24.958Z,85.36
2022-11-16T11:26:40.621Z,86.44
2022-11-16T11:29:43.522Z,86.38
2022-11-16T11:32:46.649Z,87.06
2022-11-16T11:35:59.154Z,86.04
2022-11-16T11:39:08.723Z,85.97
2022-11-16T11:42:14.262Z,85.44
2022-11-16T11:45:19.615Z,85.61
2022-11-16T11:48:32.332Z,85.80
2022-11-16T11:51:40.594Z,85.42
2022-11-16T11:54:49.359Z,84.40
2022-11-16T11:57:53.966Z,83.84
2022-11-16T12:01:14.866Z,83.67
2022-11-16T12:04:46.592Z,84.25
2022-11-16T12:07:56.512Z,84.42
2022-11-16T12:11:23.830Z,84.00
2022-11-16T12:14:56.801Z,83.82
2022-11-16T12:18:05.601Z,83.95
2022-11-16T12:21:19.156Z,84.23
2022-11-16T12:24:48.110Z,83.98
2022-11-16T12:28:08.750Z,84.11
2022-11-16T12:31:36.610Z,84.42
2022-11-16T12:35:04.952Z,84.68
2022-11-16T12:38:26.434Z,84.98
2022-11-16T12:41:32.076Z,85.07
2022-11-16T12:44:46.763Z,85.04
2022-11-16T12:48:27.192Z,85.74
2022-11-16T12:51:51.785Z,85.71
2022-11-16T12:55:26.049Z,85.75
2022-11-16T12:59:07.505Z,86.13
2022-11-16T13:02:29.136Z,86.59
2022-11-16T13:05:52.252Z,86.07
2022-11-16T13:09:10.736Z,86.59
2022-11-16T13:12:17.346Z,86.73
2022-11-16T13:15:25.051Z,87.26
2022-11-16T13:18:29.743Z,86.16
2022-11-16T13:22:11.393Z,85.96
2022-11-16T13:25:28.802Z,86.81
2022-11-16T13:29:12.677Z,87.84
2022-11-16T13:32:30.775Z,87.25
2022-11-16T13:35:37.453Z,88.21
2022-11-16T13:38:54.911Z,87.70
2022-11-16T13:42:12.310Z,88.02
2022-11-16T13:45:20.776Z,87.97
2022-11-16T13:48:26.399Z,88.26
2022-11-16T13:51:29.158Z,87.66
2022-11-16T13:54:46.231Z,88.53
2022-11-16T13:57:52.588Z,88.69
2022-11-16T14:01:15.770Z,88.61
2022-11-16T14:05:06.815Z,88.64
2022-11-16T14:08:24.992Z,88.14
2022-11-16T14:11:38.969Z,88.69
2022-11-16T14:15:03.894Z,88.14
2022-11-16T14:18:09.453Z,88.27
2022-11-16T14:21:20.628Z,88.43
2022-11-16T14:24:47.129Z,88.57
2022-11-16T14:28:32.327Z,88.78
2022-11-16T14:31:54.851Z,88.89
2022-11-16T14:34:59.854Z,88.77
2022-11-16T14:38:15.890Z,88.83
2022-11-16T14:41:21.498Z,89.10
2022-11-16T14:44:27.745Z,88.43
2022-11-16T14:47:38.749Z,88.77
2022-11-16T14:50:45.457Z,88.63
2022-11-16T14:53:52.832Z,89.65
2022-11-16T14:56:56.569Z,89.86
2022-11-16T15:00:09.411Z,89.71
2022-11-16T15:03:12.323Z,90.62
2022-11-16T15:06:15.975Z,90.56
2022-11-16T15:09:29.834Z,90.78
2022-11-16T15:12:41.687Z,90.19
2022-11-16T15:15:45.749Z,90.87
2022-11-16T15:19:02.119Z,90.66
2022-11-16T15:22:05.271Z,91.05
2022-11-16T15:25:43.144Z,91.83
2022-11-16T15:28:49.900Z,91.89
2022-11-16T15:31:52.752Z,92.52
2022-11-16T15:34:55.232Z,92.70
2022-11-16T15:38:18.507Z,92.45
2022-11-16T15:41:23.048Z,93.32
2022-11-16T15:44:26.536Z,93.09
2022-11-16T15:47:29.536Z,93.68
2022-11-16T15:50:32.070Z,93.51
2022-11-16T15:53:45.906Z,93.45
2022-11-16T15:56:50.312Z,93.40
2022-11-16T15:59:55.701Z,93.69
2022-11-16T16:03:05.180Z,93.56
2022-11-16T16:06:18.015Z,93.00
2022-11-16T16:09:22.727Z,93.64
2022-11-16T16:12:28.361Z,94.69
2022-11-16T16:15:34.763Z,94.65
2022-11-16T16:18:43.208Z,94.81
2022-11-16T16:21:47.072Z,94.65
2022-11-16T16:24:49.553Z,95.25
2022-11-16T16:27:52.020Z,95.30
2022-11-16T16:30:54.377Z,95.19
2022-11-16T16:33:56.913Z,95.25
2022-11-16T16:36:59.600Z,94.69
2022-11-16T16:40:02.831Z,95.24
2022-11-16T16:43:05.461Z,95.77
2022-11-16T16:46:11.287Z,95.31
2022-11-16T16:49:13.845Z,95.61
2022-11-16T16:52:16.521Z,95.81
2022-11-16T16:55:18.992Z,96.06
2022-11-16T16:58:21.695Z,96.58
2022-11-16T17:01:24.454Z,96.27
2022-11-16T17:04:27.051Z,96.76
2022-11-16T17:07:30.259Z,96.45
2022-11-16T17:10:33.276Z,96.54
2022-11-16T17:13:36.334Z,96.79
2022-11-16T17:16:39.095Z,96.44
2022-11-16T17:19:41.757Z,96.65
2022-11-16T17:22:44.495Z,96.42
2022-11-16T17:25:47.425Z,96.63
2022-11-16T17:28:54.717Z,96.60
2022-11-16T17:31:57.317Z,96.15
2022-11-16T17:35:00.134Z,96.43
2022-11-16T17:38:02.650Z,96.37
2022-11-16T17:41:07.292Z,96.28
2022-11-16T17:44:09.866Z,96.28
2022-11-16T17:47:12.597Z,96.13
2022-11-16T17:50:15.342Z,95.70
2022-11-16T17:53:17.941Z,95.83
2022-11-16T17:56:22.521Z,95.70
2022-11-16T17:59:29.529Z,95.97
2022-11-16T18:02:32.554Z,95.95
2022-11-16T18:05:35.127Z,95.92
2022-11-16T18:08:38.054Z,95.51
2022-11-16T18:11:40.510Z,95.48
2022-11-16T18:14:59.867Z,95.36
2022-11-16T18:18:05.739Z,95.21
2022-11-16T18:21:09.955Z,95.07
2022-11-16T18:24:12.970Z,95.11
2022-11-16T18:27:16.010Z,95.10
2022-11-16T18:30:18.553Z,95.12
2022-11-16T18:33:21.117Z,94.83
2022-11-16T18:36:24.370Z,94.52
2022-11-16T18:39:27.415Z,94.70
2022-11-16T18:42:30.123Z,94.13
2022-11-16T18:45:32.910Z,94.08
2022-11-16T18:48:35.396Z,93.96
2022-11-16T18:51:38.068Z,93.63
2022-11-16T18:54:41.136Z,93.84
2022-11-16T18:57:43.732Z,93.37
2022-11-16T19:00:47.310Z,93.79
2022-11-16T19:03:51.323Z,93.12
2022-11-16T19:06:54.321Z,93.08
2022-11-16T19:09:57.257Z,93.06
2022-11-16T19:13:00.080Z,92.68
2022-11-16T19:16:02.853Z,93.00
2022-11-16T19:19:05.554Z,92.78
2022-11-16T19:22:08.122Z,92.83
2022-11-16T19:25:12.175Z,93.00
2022-11-16T19:28:14.852Z,92.98
2022-11-16T19:31:23.953Z,93.48
2022-11-16T19:34:31.941Z,93.26
2022-11-16T19:37:35.992Z,93.32
2022-11-16T19:40:39.537Z,93.25
2022-11-16T19:43:42.567Z,93.40
2022-11-16T19:46:45.201Z,93.84
2022-11-16T19:49:50.078Z,93.84
2022-11-16T19:52:52.601Z,93.18
2022-11-16T19:55:55.426Z,92.90
2022-11-16T19:58:58.614Z,93.35
2022-11-16T20:02:01.883Z,93.38
2022-11-16T20:05:04.777Z,93.10
2022-11-16T20:08:07.215Z,92.89
2022-11-16T20:11:15.339Z,93.08
2022-11-16T20:14:18.108Z,93.05
2022-11-16T20:17:21.095Z,93.13
2022-11-16T20:20:23.873Z,93.17
2022-11-16T20:23:26.622Z,92.62
2022-11-16T20:26:31.698Z,92.86
2022-11-16T20:29:34.156Z,92.85
2022-11-16T20:32:36.821Z,93.09
2022-11-16T20:35:39.406Z,93.25
2022-11-16T20:38:42.084Z,93.03
2022-11-16T20:41:45.226Z,93.73
2022-11-16T20:44:47.995Z,93.56
2022-11-16T20:47:51.682Z,93.53
2022-11-16T20:50:54.289Z,93.69
2022-11-16T20:53:57.185Z,94.34
2022-11-16T20:56:59.685Z,94.54
2022-11-16T21:00:05.150Z,93.87
2022-11-16T21:03:07.646Z,94.18
2022-11-16T21:06:11.737Z,94.56
2022-11-16T21:09:22.582Z,94.34
2022-11-16T21:12:44.361Z,94.80
2022-11-16T21:15:56.404Z,94.41
2022-11-16T21:18:59.115Z,94.59
2022-11-16T21:22:01.939Z,94.74
2022-11-16T21:25:04.713Z,94.90
2022-11-16T21:28:07.107Z,95.12
2022-11-16T21:31:14.979Z,94.82
2022-11-16T21:34:18.776Z,95.10
2022-11-16T21:37:21.482Z,95.36
2022-11-16T21:40:23.950Z,95.00
2022-11-16T21:43:27.024Z,94.97
2022-11-16T21:46:29.732Z,95.24
2022-11-16T21:49:32.273Z,95.27
2022-11-16T21:52:34.674Z,94.76
2022-11-16T21:55:37.101Z,95.21
2022-11-16T21:58:40.300Z,95.38
2022-11-16T22:02:01.002Z,94.59
2022-11-16T22:05:22.234Z,94.30
2022-11-16T22:08:24.710Z,94.05
2022-11-16T22:11:27.152Z,93.63
2022-11-16T22:14:29.516Z,93.78
2022-11-16T22:17:31.984Z,93.57
2022-11-16T22:20:34.427Z,93.39
2022-11-16T22:23:37.516Z,93.49
2022-11-16T22:26:41.102Z,93.66
2022-11-16T22:29:43.858Z,93.69
2022-11-16T22:32:46.328Z,93.57
2022-11-16T22:35:48.678Z,93.55
2022-11-16T22:38:51.242Z,93.51
2022-11-16T22:41:54.058Z,93.58
2022-11-16T22:44:56.591Z,93.92
2022-11-16T22:47:59.032Z,93.75
2022-11-16T22:51:22.085Z,93.63
2022-11-16T22:54:28.433Z,93.99
2022-11-16T22:57:31.526Z,93.34
2022-11-16T23:00:40.718Z,93.54
2022-11-16T23:03:44.524Z,93.43
2022-11-16T23:06:46.905Z,93.39
2022-11-16T23:09:49.390Z,92.44
2022-11-16T23:13:10.297Z,91.79
2022-11-16T23:16:12.672Z,92.42
2022-11-16T23:19:35.967Z,91.85
2022-11-16T23:22:56.982Z,91.58
2022-11-16T23:26:17.791Z,91.32
2022-11-16T23:29:20.642Z,92.15
2022-11-16T23:32:23.077Z,91.83
2022-11-16T23:35:25.520Z,92.17
2022-11-16T23:38:28.007Z,91.46
2022-11-16T23:41:49.192Z,91.73
2022-11-16T23:44:51.552Z,91.91
2022-11-16T23:47:53.996Z,92.17
2022-11-16T23:50:56.549Z,92.49
2022-11-16T23:53:59.746Z,92.72
2022-11-16T23:57:02.421Z,92.69
